createdAt,value
2023-03-16T00:01:23.912Z,1.40
2023-03-16T00:04:26.569Z,1.70
2023-03-16T00:07:29.245Z,1.23
2023-03-16T00:10:31.727Z,1.35
2023-03-16T00:13:34.413Z,1.27
2023-03-16T00:16:36.966Z,1.00
2023-03-16T00:19:39.423Z,1.60
2023-03-16T00:22:42.114Z,1.30
2023-03-16T00:25:44.808Z,1.85
2023-03-16T00:28:47.393Z,2.10
2023-03-16T00:31:50.189Z,2.28
2023-03-16T00:34:53.887Z,2.13
2023-03-16T00:37:57.405Z,2.28
2023-03-16T00:41:03.984Z,2.53
2023-03-16T00:44:06.828Z,2.75
2023-03-16T00:47:14.565Z,2.22
2023-03-16T00:50:17.924Z,2.40
2023-03-16T00:53:22.227Z,2.10
2023-03-16T00:56:24.732Z,2.25
2023-03-16T00:59:28.217Z,1.98
2023-03-16T01:02:30.744Z,2.37
2023-03-16T01:05:33.559Z,2.35
2023-03-16T01:08:40.049Z,2.30
2023-03-16T01:11:43.258Z,2.05
2023-03-16T01:14:46.232Z,2.10
2023-03-16T01:17:49.192Z,2.25
2023-03-16T01:20:51.697Z,2.40
2023-03-16T01:23:54.207Z,2.17
2023-03-16T01:26:56.795Z,2.23
2023-03-16T01:30:00.203Z,2.65
2023-03-16T01:33:03.676Z,2.65
2023-03-16T01:36:09.565Z,2.50
2023-03-16T01:39:30.521Z,2.43
2023-03-16T01:42:44.163Z,2.33
2023-03-16T01:46:10.025Z,2.25
2023-03-16T01:49:20.580Z,2.90
2023-03-16T01:52:29.835Z,2.30
2023-03-16T01:55:32.545Z,2.22
2023-03-16T01:58:37.680Z,2.20
2023-03-16T02:01:41.192Z,2.15
2023-03-16T02:04:49.878Z,2.20
2023-03-16T02:07:58.731Z,2.70
2023-03-16T02:11:01.366Z,2.38
2023-03-16T02:14:17.158Z,2.38
2023-03-16T02:17:23.686Z,1.90
2023-03-16T02:20:53.282Z,2.30
2023-03-16T02:23:56.186Z,2.40
2023-03-16T02:27:04.608Z,2.33
2023-03-16T02:30:16.779Z,2.50
2023-03-16T02:33:35.774Z,2.10
2023-03-16T02:36:41.751Z,2.63
2023-03-16T02:39:44.449Z,2.17
2023-03-16T02:43:02.837Z,2.10
2023-03-16T02:46:08.094Z,2.35
2023-03-16T02:49:16.416Z,2.58
2023-03-16T02:52:19.630Z,2.60
2023-03-16T02:55:22.131Z,2.47
2023-03-16T02:58:24.832Z,3.20
2023-03-16T03:01:27.700Z,2.83
2023-03-16T03:04:33.038Z,2.65
2023-03-16T03:07:35.655Z,2.47
2023-03-16T03:10:41.025Z,3.03
2023-03-16T03:13:45.163Z,2.97
2023-03-16T03:16:52.900Z,2.72
2023-03-16T03:19:59.182Z,2.73
2023-03-16T03:23:03.284Z,2.78
2023-03-16T03:26:06.379Z,3.03
2023-03-16T03:29:09.067Z,2.70
2023-03-16T03:32:11.648Z,2.80
2023-03-16T03:35:15.970Z,2.78
2023-03-16T03:38:18.371Z,3.13
2023-03-16T03:41:22.525Z,2.80
2023-03-16T03:44:27.036Z,3.33
2023-03-16T03:47:30.931Z,3.15
2023-03-16T03:50:35.178Z,3.20
2023-03-16T03:53:54.013Z,3.03
2023-03-16T03:57:22.319Z,3.33
2023-03-16T04:00:25.675Z,3.25
2023-03-16T04:03:28.804Z,2.83
2023-03-16T04:06:31.614Z,3.10
2023-03-16T04:09:34.388Z,3.33
2023-03-16T04:12:37.783Z,3.35
2023-03-16T04:15:42.257Z,2.87
2023-03-16T04:18:58.100Z,3.30
2023-03-16T04:22:01.122Z,3.47
2023-03-16T04:25:05.215Z,3.53
2023-03-16T04:28:08.802Z,3.63
2023-03-16T04:31:14.220Z,3.50
2023-03-16T04:34:24.879Z,4.00
2023-03-16T04:37:31.261Z,3.37
2023-03-16T04:40:33.774Z,3.67
2023-03-16T04:43:43.970Z,3.97
2023-03-16T04:46:53.684Z,3.47
2023-03-16T04:49:57.960Z,3.60
2023-03-16T04:53:00.832Z,4.10
2023-03-16T04:56:04.416Z,4.13
2023-03-16T04:59:07.824Z,3.83
2023-03-16T05:02:36.543Z,3.97
2023-03-16T05:05:39.515Z,4.80
2023-03-16T05:08:45.025Z,4.38
2023-03-16T05:11:47.513Z,4.60
2023-03-16T05:14:50.270Z,5.18
2023-03-16T05:18:33.239Z,4.75
2023-03-16T05:21:37.818Z,5.43
2023-03-16T05:24:43.662Z,5.78
2023-03-16T05:27:48.851Z,5.78
2023-03-16T05:30:58.834Z,6.03
2023-03-16T05:34:03.291Z,5.90
2023-03-16T05:37:06.342Z,5.78
2023-03-16T05:40:22.940Z,5.88
2023-03-16T05:43:37.725Z,5.38
2023-03-16T05:46:40.693Z,5.63
2023-03-16T05:49:43.491Z,5.30
2023-03-16T05:52:55.827Z,5.45
2023-03-16T05:56:01.279Z,5.63
2023-03-16T05:59:06.736Z,6.10
2023-03-16T06:02:11.767Z,6.40
2023-03-16T06:05:15.052Z,6.10
2023-03-16T06:08:19.494Z,6.07
2023-03-16T06:11:26.762Z,6.10
2023-03-16T06:14:30.321Z,6.80
2023-03-16T06:17:33.763Z,6.60
2023-03-16T06:20:36.765Z,4.70
2023-03-16T06:23:40.228Z,4.50
2023-03-16T06:26:45.053Z,4.20
2023-03-16T06:29:49.310Z,4.05
2023-03-16T06:32:52.724Z,3.50
2023-03-16T06:35:56.540Z,2.97
2023-03-16T06:39:16.179Z,2.60
2023-03-16T06:42:24.147Z,2.67
2023-03-16T06:45:27.723Z,2.47
2023-03-16T06:48:32.674Z,2.13
2023-03-16T06:51:35.670Z,2.20
2023-03-16T06:54:39.923Z,1.90
2023-03-16T06:57:44.319Z,2.25
2023-03-16T07:00:48.153Z,2.03
2023-03-16T07:03:51.694Z,2.00
2023-03-16T07:07:03.212Z,2.20
2023-03-16T07:10:07.226Z,2.00
2023-03-16T07:13:11.803Z,2.13
2023-03-16T07:16:15.874Z,2.00
2023-03-16T07:19:20.519Z,1.93
2023-03-16T07:22:24.865Z,2.30
2023-03-16T07:25:29.104Z,1.88
2023-03-16T07:28:32.745Z,1.70
2023-03-16T07:31:38.473Z,2.20
2023-03-16T07:34:47.214Z,2.07
2023-03-16T07:37:50.964Z,1.90
2023-03-16T07:40:56.347Z,2.10
2023-03-16T07:43:59.502Z,2.15
2023-03-16T07:47:02.502Z,2.17
2023-03-16T07:50:08.914Z,2.30
2023-03-16T07:53:13.569Z,2.10
2023-03-16T07:56:18.303Z,2.42
2023-03-16T07:59:23.991Z,1.92
2023-03-16T08:02:27.078Z,2.03
2023-03-16T08:05:32.590Z,2.20
2023-03-16T08:08:38.181Z,1.90
2023-03-16T08:11:42.674Z,2.10
2023-03-16T08:14:46.764Z,1.90
2023-03-16T08:18:05.784Z,2.17
2023-03-16T08:21:09.826Z,2.37
2023-03-16T08:24:13.464Z,1.95
2023-03-16T08:27:18.562Z,2.08
2023-03-16T08:30:27.622Z,2.40
2023-03-16T08:33:49.864Z,2.10
2023-03-16T08:36:56.654Z,1.93
2023-03-16T08:40:00.724Z,2.15
2023-03-16T08:43:05.538Z,2.20
2023-03-16T08:46:09.007Z,2.35
2023-03-16T08:49:21.084Z,2.37
2023-03-16T08:52:31.774Z,3.10
2023-03-16T08:55:37.240Z,2.25
2023-03-16T08:58:42.316Z,2.10
2023-03-16T09:01:45.189Z,2.10
2023-03-16T09:04:48.651Z,2.50
2023-03-16T09:07:52.019Z,2.17
2023-03-16T09:11:07.839Z,1.98
2023-03-16T09:14:14.448Z,2.50
2023-03-16T09:17:17.381Z,2.50
2023-03-16T09:20:26.220Z,2.40
2023-03-16T09:23:31.196Z,2.30
2023-03-16T09:26:43.368Z,1.88
2023-03-16T09:29:47.217Z,1.85
2023-03-16T09:32:51.116Z,1.77
2023-03-16T09:35:56.035Z,2.60
2023-03-16T09:38:58.751Z,1.87
2023-03-16T09:42:30.828Z,1.60
2023-03-16T09:45:41.662Z,1.23
2023-03-16T09:48:45.293Z,1.60
2023-03-16T09:52:00.699Z,2.17
2023-03-16T09:55:28.564Z,1.90
2023-03-16T09:58:34.718Z,1.50
2023-03-16T10:01:56.144Z,1.80
2023-03-16T10:05:09.821Z,1.80
2023-03-16T10:08:26.029Z,1.80
2023-03-16T10:11:38.369Z,1.80
2023-03-16T10:14:57.866Z,1.98
2023-03-16T10:18:06.686Z,2.00
2023-03-16T10:21:15.076Z,1.88
2023-03-16T10:24:45.898Z,1.87
2023-03-16T10:27:49.220Z,2.00
2023-03-16T10:30:54.868Z,1.92
2023-03-16T10:34:04.683Z,2.10
2023-03-16T10:37:12.314Z,1.88
2023-03-16T10:40:16.369Z,2.10
2023-03-16T10:43:19.368Z,1.83
2023-03-16T10:46:22.676Z,2.25
2023-03-16T10:49:28.649Z,1.70
2023-03-16T10:52:40.492Z,1.90
2023-03-16T10:55:45.018Z,1.87
2023-03-16T10:58:47.515Z,2.30
2023-03-16T11:01:50.255Z,1.85
2023-03-16T11:04:54.538Z,1.85
2023-03-16T11:08:11.194Z,2.13
2023-03-16T11:11:21.401Z,2.10
2023-03-16T11:14:28.403Z,1.70
2023-03-16T11:17:43.390Z,1.58
2023-03-16T11:20:47.290Z,1.55
2023-03-16T11:23:56.187Z,1.40
2023-03-16T11:27:03.297Z,1.90
2023-03-16T11:30:27.138Z,1.50
2023-03-16T11:33:31.284Z,1.40
2023-03-16T11:36:55.996Z,1.30
2023-03-16T11:40:31.069Z,1.17
2023-03-16T11:43:42.808Z,1.40
2023-03-16T11:47:03.734Z,1.37
2023-03-16T11:50:29.162Z,1.42
2023-03-16T11:53:56.684Z,1.30
2023-03-16T11:57:05.189Z,1.50
2023-03-16T12:00:44.980Z,1.60
2023-03-16T12:03:53.964Z,1.30
2023-03-16T12:07:15.086Z,1.50
2023-03-16T12:10:34.239Z,1.30
2023-03-16T12:14:17.148Z,1.30
2023-03-16T12:17:36.390Z,1.37
2023-03-16T12:21:05.921Z,1.50
2023-03-16T12:24:17.266Z,1.73
2023-03-16T12:27:33.474Z,1.30
2023-03-16T12:30:44.127Z,1.50
2023-03-16T12:34:09.904Z,1.30
2023-03-16T12:37:37.604Z,1.30
2023-03-16T12:41:22.236Z,1.40
2023-03-16T12:44:48.393Z,1.63
2023-03-16T12:48:11.538Z,2.13
2023-03-16T12:51:14.216Z,1.80
2023-03-16T12:54:25.291Z,1.40
2023-03-16T12:57:28.188Z,1.35
2023-03-16T13:00:40.662Z,1.20
2023-03-16T13:03:44.465Z,1.20
2023-03-16T13:07:05.129Z,1.10
2023-03-16T13:10:14.726Z,1.50
2023-03-16T13:13:18.391Z,1.40
2023-03-16T13:16:31.361Z,1.25
2023-03-16T13:19:38.107Z,1.70
2023-03-16T13:22:53.276Z,1.20
2023-03-16T13:26:18.749Z,2.30
2023-03-16T13:29:30.171Z,1.50
2023-03-16T13:32:33.710Z,1.50
2023-03-16T13:35:39.398Z,1.45
2023-03-16T13:38:41.952Z,1.40
2023-03-16T13:42:12.756Z,1.40
2023-03-16T13:45:19.911Z,1.48
2023-03-16T13:48:22.432Z,1.30
2023-03-16T13:51:25.005Z,1.70
2023-03-16T13:54:30.349Z,1.30
2023-03-16T13:57:39.091Z,1.40
2023-03-16T14:00:45.717Z,1.50
2023-03-16T14:03:49.187Z,1.45
2023-03-16T14:06:55.029Z,1.20
2023-03-16T14:09:59.122Z,1.43
2023-03-16T14:13:24.081Z,1.30
2023-03-16T14:16:29.809Z,1.38
2023-03-16T14:19:42.477Z,1.50
2023-03-16T14:22:45.413Z,1.50
2023-03-16T14:25:49.324Z,1.70
2023-03-16T14:29:15.124Z,1.20
2023-03-16T14:32:32.481Z,1.15
2023-03-16T14:35:43.436Z,1.20
2023-03-16T14:38:54.485Z,1.15
2023-03-16T14:41:56.995Z,1.10
2023-03-16T14:45:02.713Z,1.20
2023-03-16T14:48:08.703Z,1.50
2023-03-16T14:51:13.778Z,1.17
2023-03-16T14:54:18.285Z,1.30
2023-03-16T14:57:21.685Z,0.90
2023-03-16T15:00:25.490Z,1.10
2023-03-16T15:03:33.773Z,1.00
2023-03-16T15:06:36.819Z,1.30
2023-03-16T15:09:43.827Z,1.00
2023-03-16T15:12:53.887Z,0.70
2023-03-16T15:15:56.554Z,0.70
2023-03-16T15:18:59.085Z,0.80
2023-03-16T15:22:03.468Z,0.80
2023-03-16T15:25:28.254Z,0.93
2023-03-16T15:28:30.709Z,0.87
2023-03-16T15:31:33.675Z,1.03
2023-03-16T15:34:36.123Z,1.10
2023-03-16T15:37:39.167Z,1.25
2023-03-16T15:40:43.789Z,1.00
2023-03-16T15:43:46.432Z,1.67
2023-03-16T15:46:49.143Z,0.80
2023-03-16T15:49:51.611Z,1.55
2023-03-16T15:53:01.000Z,1.30
2023-03-16T15:56:09.367Z,1.10
2023-03-16T15:59:16.939Z,0.90
2023-03-16T16:02:32.532Z,1.20
2023-03-16T16:05:35.320Z,1.00
2023-03-16T16:08:37.824Z,1.10
2023-03-16T16:11:41.849Z,0.93
2023-03-16T16:14:44.391Z,1.50
2023-03-16T16:18:08.567Z,1.20
2023-03-16T16:21:17.957Z,1.17
2023-03-16T16:24:21.140Z,1.30
2023-03-16T16:27:23.713Z,1.88
2023-03-16T16:30:31.843Z,2.07
2023-03-16T16:33:35.809Z,1.20
2023-03-16T16:36:39.722Z,1.60
2023-03-16T16:39:42.402Z,2.05
2023-03-16T16:42:47.295Z,1.30
2023-03-16T16:45:50.589Z,1.60
2023-03-16T16:49:00.280Z,1.50
2023-03-16T16:52:03.922Z,1.65
2023-03-16T16:55:06.917Z,1.70
2023-03-16T16:58:18.518Z,1.95
2023-03-16T17:01:30.452Z,2.50
2023-03-16T17:04:32.950Z,2.90
2023-03-16T17:07:35.510Z,3.28
2023-03-16T17:10:38.480Z,2.75
2023-03-16T17:13:41.819Z,2.85
2023-03-16T17:16:47.608Z,2.67
2023-03-16T17:19:50.427Z,3.43
2023-03-16T17:22:55.805Z,4.18
2023-03-16T17:26:01.794Z,4.95
2023-03-16T17:29:10.185Z,5.05
2023-03-16T17:32:19.849Z,4.53
2023-03-16T17:35:22.854Z,4.40
2023-03-16T17:38:25.482Z,4.75
2023-03-16T17:41:31.746Z,4.13
2023-03-16T17:44:41.125Z,3.78
2023-03-16T17:47:43.736Z,3.70
2023-03-16T17:50:47.483Z,3.40
2023-03-16T17:53:50.456Z,3.05
2023-03-16T17:56:54.144Z,3.63
2023-03-16T17:59:56.981Z,3.33
2023-03-16T18:03:03.239Z,3.00
2023-03-16T18:06:06.311Z,3.37
2023-03-16T18:09:09.743Z,3.47
2023-03-16T18:12:12.608Z,4.18
2023-03-16T18:15:18.832Z,5.70
2023-03-16T18:18:24.101Z,4.87
2023-03-16T18:21:28.092Z,5.87
2023-03-16T18:24:31.732Z,5.53
2023-03-16T18:27:34.660Z,5.80
2023-03-16T18:30:39.393Z,8.82
2023-03-16T18:33:45.683Z,8.57
2023-03-16T18:36:48.517Z,7.23
2023-03-16T18:39:52.900Z,10.23
2023-03-16T18:42:55.756Z,21.95
2023-03-16T18:45:58.972Z,21.45
2023-03-16T18:49:11.965Z,18.67
2023-03-16T18:52:26.292Z,17.07
2023-03-16T18:55:29.431Z,15.85
2023-03-16T18:58:32.301Z,14.38
2023-03-16T19:01:39.431Z,13.63
2023-03-16T19:04:43.429Z,14.27
2023-03-16T19:07:50.279Z,13.77
2023-03-16T19:10:59.022Z,12.95
2023-03-16T19:14:02.457Z,14.48
2023-03-16T19:17:05.213Z,12.10
2023-03-16T19:20:08.414Z,12.07
2023-03-16T19:23:25.785Z,13.60
2023-03-16T19:26:35.254Z,14.25
2023-03-16T19:29:38.449Z,12.98
2023-03-16T19:32:41.162Z,11.80
2023-03-16T19:35:51.594Z,9.60
2023-03-16T19:38:55.087Z,9.50
2023-03-16T19:41:59.066Z,10.00
2023-03-16T19:45:04.171Z,10.75
2023-03-16T19:48:20.325Z,10.00
2023-03-16T19:51:25.378Z,10.33
2023-03-16T19:54:34.076Z,9.40
2023-03-16T19:57:37.101Z,10.10
2023-03-16T20:00:40.182Z,10.38
2023-03-16T20:03:44.222Z,10.15
2023-03-16T20:06:49.792Z,9.07
2023-03-16T20:09:52.931Z,9.50
2023-03-16T20:12:58.603Z,8.95
2023-03-16T20:16:01.795Z,8.70
2023-03-16T20:19:13.545Z,8.10
2023-03-16T20:22:19.903Z,8.03
2023-03-16T20:25:24.788Z,8.25
2023-03-16T20:28:34.202Z,8.50
2023-03-16T20:31:37.967Z,8.38
2023-03-16T20:34:41.010Z,8.20
2023-03-16T20:37:43.714Z,8.83
2023-03-16T20:40:49.766Z,8.13
2023-03-16T20:43:52.962Z,9.48
2023-03-16T20:46:56.010Z,10.65
2023-03-16T20:50:00.306Z,9.77
2023-03-16T20:53:04.007Z,10.75
2023-03-16T20:56:15.159Z,9.90
2023-03-16T20:59:24.879Z,9.80
2023-03-16T21:02:29.109Z,8.77
2023-03-16T21:05:32.084Z,8.70
2023-03-16T21:08:34.892Z,8.52
2023-03-16T21:11:39.397Z,8.50
2023-03-16T21:14:43.580Z,7.75
2023-03-16T21:17:46.169Z,9.20
2023-03-16T21:20:50.067Z,8.52
2023-03-16T21:23:52.721Z,12.07
2023-03-16T21:26:55.308Z,8.93
2023-03-16T21:30:00.436Z,9.60
2023-03-16T21:33:16.788Z,9.82
2023-03-16T21:36:21.933Z,9.43
2023-03-16T21:39:25.369Z,8.77
2023-03-16T21:42:28.110Z,9.80
2023-03-16T21:45:31.277Z,10.40
2023-03-16T21:48:37.889Z,11.18
2023-03-16T21:51:43.172Z,10.65
2023-03-16T21:54:45.719Z,10.90
2023-03-16T21:57:49.407Z,11.23
2023-03-16T22:00:54.478Z,11.43
2023-03-16T22:04:02.301Z,11.88
2023-03-16T22:07:12.071Z,10.70
2023-03-16T22:10:15.362Z,11.75
2023-03-16T22:13:19.288Z,10.70
2023-03-16T22:16:25.338Z,10.43
2023-03-16T22:19:28.920Z,10.43
2023-03-16T22:22:32.891Z,10.20
2023-03-16T22:25:35.481Z,10.20
2023-03-16T22:28:38.254Z,10.98
2023-03-16T22:31:42.049Z,10.50
2023-03-16T22:34:46.573Z,11.13
2023-03-16T22:37:49.066Z,10.48
2023-03-16T22:40:51.991Z,10.70
2023-03-16T22:43:54.467Z,11.03
2023-03-16T22:46:57.034Z,10.73
2023-03-16T22:50:00.058Z,9.80
2023-03-16T22:53:07.351Z,10.23
2023-03-16T22:56:10.388Z,10.30
2023-03-16T22:59:20.022Z,10.75
2023-03-16T23:02:26.103Z,9.45
2023-03-16T23:05:29.769Z,8.77
2023-03-16T23:08:32.562Z,7.97
2023-03-16T23:11:36.507Z,7.65
2023-03-16T23:14:39.768Z,8.40
2023-03-16T23:17:42.295Z,8.03
2023-03-16T23:20:45.455Z,8.60
2023-03-16T23:24:02.718Z,7.93
2023-03-16T23:27:21.437Z,8.73
2023-03-16T23:30:25.820Z,7.30
2023-03-16T23:33:28.673Z,7.85
2023-03-16T23:36:31.660Z,8.05
2023-03-16T23:39:34.075Z,8.05
2023-03-16T23:42:37.161Z,7.53
2023-03-16T23:45:46.041Z,7.80
2023-03-16T23:48:50.470Z,8.20
2023-03-16T23:51:54.836Z,6.97
2023-03-16T23:54:59.216Z,7.47
2023-03-16T23:58:01.910Z,7.82
